sensor_id;sensor_type;location;lat;lon;timestamp;pressure;altitude;pressure_sealevel;temperature;humidity
65897;BME280;52677;50.898;10.854;2023-05-10T00:00:52;97746.78;;;10.57;84.61
65897;BME280;52677;50.898;10.854;2023-05-10T00:02:52;97741.25;;;10.57;84.43
65897;BME280;52677;50.898;10.854;2023-05-10T00:04:52;97734.16;;;10.60;83.83
65897;BME280;52677;50.898;10.854;2023-05-10T00:06:53;97745.59;;;10.62;83.93
65897;BME280;52677;50.898;10.854;2023-05-10T00:08:54;97737.28;;;10.65;83.98
65897;BME280;52677;50.898;10.854;2023-05-10T00:10:54;97741.25;;;10.72;84.00
65897;BME280;52677;50.898;10.854;2023-05-10T00:12:55;97745.19;;;10.74;83.71
65897;BME280;52677;50.898;10.854;2023-05-10T00:14:55;97736.88;;;10.78;83.70
65897;BME280;52677;50.898;10.854;2023-05-10T00:16:55;97735.69;;;10.86;84.30
65897;BME280;52677;50.898;10.854;2023-05-10T00:18:56;97733.69;;;10.90;83.15
65897;BME280;52677;50.898;10.854;2023-05-10T00:20:56;97726.97;;;10.91;83.80
65897;BME280;52677;50.898;10.854;2023-05-10T00:22:56;97719.84;;;10.90;83.77
65897;BME280;52677;50.898;10.854;2023-05-10T00:24:57;97723.41;;;10.90;83.61
65897;BME280;52677;50.898;10.854;2023-05-10T00:26:58;97718.69;;;10.87;83.04
65897;BME280;52677;50.898;10.854;2023-05-10T00:28:58;97714.34;;;10.86;83.05
65897;BME280;52677;50.898;10.854;2023-05-10T00:30:58;97717.88;;;10.83;83.43
65897;BME280;52677;50.898;10.854;2023-05-10T00:32:59;97723.41;;;10.83;83.62
65897;BME280;52677;50.898;10.854;2023-05-10T00:34:59;97717.88;;;10.83;83.80
65897;BME280;52677;50.898;10.854;2023-05-10T00:36:59;97721.44;;;10.84;84.23
65897;BME280;52677;50.898;10.854;2023-05-10T00:39:00;97717.50;;;10.85;84.32
65897;BME280;52677;50.898;10.854;2023-05-10T00:41:00;97721.06;;;10.85;84.65
65897;BME280;52677;50.898;10.854;2023-05-10T00:43:01;97714.75;;;10.85;85.80
65897;BME280;52677;50.898;10.854;2023-05-10T00:45:01;97719.88;;;10.86;85.55
65897;BME280;52677;50.898;10.854;2023-05-10T00:47:02;97715.50;;;10.89;85.46
65897;BME280;52677;50.898;10.854;2023-05-10T00:49:02;97715.50;;;10.89;85.38
65897;BME280;52677;50.898;10.854;2023-05-10T00:51:03;97714.31;;;10.90;85.11
65897;BME280;52677;50.898;10.854;2023-05-10T00:53:03;97713.16;;;10.87;84.75
65897;BME280;52677;50.898;10.854;2023-05-10T00:55:04;97708.38;;;10.91;84.05
65897;BME280;52677;50.898;10.854;2023-05-10T00:57:06;97715.53;;;10.92;83.79
65897;BME280;52677;50.898;10.854;2023-05-10T00:59:08;97707.59;;;10.91;84.66
65897;BME280;52677;50.898;10.854;2023-05-10T01:01:08;97708.38;;;10.91;84.17
65897;BME280;52677;50.898;10.854;2023-05-10T01:03:10;97705.63;;;10.91;85.18
65897;BME280;52677;50.898;10.854;2023-05-10T01:05:11;97706.03;;;10.90;85.72
65897;BME280;52677;50.898;10.854;2023-05-10T01:07:12;97702.88;;;10.88;86.64
65897;BME280;52677;50.898;10.854;2023-05-10T01:09:12;97711.56;;;10.90;86.04
65897;BME280;52677;50.898;10.854;2023-05-10T01:11:13;97704.03;;;10.90;86.54
65897;BME280;52677;50.898;10.854;2023-05-10T01:13:18;97703.63;;;10.92;86.33
65897;BME280;52677;50.898;10.854;2023-05-10T01:15:23;97701.66;;;10.96;87.37
65897;BME280;52677;50.898;10.854;2023-05-10T01:17:24;97698.09;;;10.95;87.07
65897;BME280;52677;50.898;10.854;2023-05-10T01:19:31;97712.75;;;10.96;87.64
65897;BME280;52677;50.898;10.854;2023-05-10T01:26:14;97711.13;;;10.98;86.83
65897;BME280;52677;50.898;10.854;2023-05-10T01:35:18;97708.41;;;10.95;87.63
65897;BME280;52677;50.898;10.854;2023-05-10T01:37:28;97718.28;;;10.96;87.49
65897;BME280;52677;50.898;10.854;2023-05-10T01:41:54;97713.53;;;10.96;88.14
65897;BME280;52677;50.898;10.854;2023-05-10T01:46:08;97706.81;;;10.94;90.38
65897;BME280;52677;50.898;10.854;2023-05-10T01:48:11;97708.78;;;10.93;90.53
65897;BME280;52677;50.898;10.854;2023-05-10T01:50:19;97707.22;;;10.92;90.34
65897;BME280;52677;50.898;10.854;2023-05-10T01:52:51;97714.72;;;10.95;89.95
65897;BME280;52677;50.898;10.854;2023-05-10T01:55:02;97707.19;;;10.96;89.10
65897;BME280;52677;50.898;10.854;2023-05-10T01:57:06;97713.94;;;10.95;90.23
65897;BME280;52677;50.898;10.854;2023-05-10T01:59:12;97713.53;;;10.96;91.39
65897;BME280;52677;50.898;10.854;2023-05-10T02:01:15;97712.34;;;10.94;91.95
65897;BME280;52677;50.898;10.854;2023-05-10T02:03:18;97709.59;;;10.94;92.71
65897;BME280;52677;50.898;10.854;2023-05-10T02:05:21;97716.31;;;10.93;92.43
65897;BME280;52677;50.898;10.854;2023-05-10T02:07:23;97709.59;;;10.94;91.91
65897;BME280;52677;50.898;10.854;2023-05-10T02:09:25;97715.53;;;10.92;93.43
65897;BME280;52677;50.898;10.854;2023-05-10T02:11:29;97711.94;;;10.92;93.00
65897;BME280;52677;50.898;10.854;2023-05-10T02:13:31;97704.81;;;10.91;92.89
65897;BME280;52677;50.898;10.854;2023-05-10T02:15:34;97714.72;;;10.92;92.80
65897;BME280;52677;50.898;10.854;2023-05-10T02:17:37;97711.16;;;10.95;91.54
65897;BME280;52677;50.898;10.854;2023-05-10T02:19:39;97713.13;;;10.94;91.30
65897;BME280;52677;50.898;10.854;2023-05-10T02:21:41;97719.84;;;10.97;92.29
65897;BME280;52677;50.898;10.854;2023-05-10T02:23:43;97711.94;;;10.92;94.64
65897;BME280;52677;50.898;10.854;2023-05-10T02:25:44;97713.13;;;10.91;96.16
65897;BME280;52677;50.898;10.854;2023-05-10T02:27:46;97713.53;;;10.89;97.51
65897;BME280;52677;50.898;10.854;2023-05-10T02:29:48;97708.44;;;10.84;98.71
65897;BME280;52677;50.898;10.854;2023-05-10T02:31:52;97708.00;;;10.82;98.15
65897;BME280;52677;50.898;10.854;2023-05-10T02:33:53;97704.06;;;10.83;98.15
65897;BME280;52677;50.898;10.854;2023-05-10T02:35:54;97711.19;;;10.84;97.41
65897;BME280;52677;50.898;10.854;2023-05-10T02:37:56;97711.97;;;10.85;99.42
65897;BME280;52677;50.898;10.854;2023-05-10T02:39:59;97712.38;;;10.87;100.00
65897;BME280;52677;50.898;10.854;2023-05-10T02:42:00;97707.22;;;10.85;100.00
65897;BME280;52677;50.898;10.854;2023-05-10T02:44:02;97716.72;;;10.84;100.00
65897;BME280;52677;50.898;10.854;2023-05-10T02:46:03;97708.03;;;10.79;100.00
65897;BME280;52677;50.898;10.854;2023-05-10T02:48:04;97713.97;;;10.77;100.00
65897;BME280;52677;50.898;10.854;2023-05-10T02:50:05;97715.13;;;10.80;100.00
65897;BME280;52677;50.898;10.854;2023-05-10T02:52:06;97713.16;;;10.80;100.00
65897;BME280;52677;50.898;10.854;2023-05-10T02:54:20;97715.53;;;10.78;100.00
65897;BME280;52677;50.898;10.854;2023-05-10T02:56:28;97704.47;;;10.75;100.00
65897;BME280;52677;50.898;10.854;2023-05-10T02:58:31;97708.41;;;10.74;100.00
65897;BME280;52677;50.898;10.854;2023-05-10T03:00:32;97717.91;;;10.73;100.00
65897;BME280;52677;50.898;10.854;2023-05-10T03:02:32;97709.63;;;10.73;100.00
65897;BME280;52677;50.898;10.854;2023-05-10T03:04:32;97721.47;;;10.73;100.00
65897;BME280;52677;50.898;10.854;2023-05-10T03:06:33;97724.63;;;10.75;100.00
65897;BME280;52677;50.898;10.854;2023-05-10T03:08:33;97715.94;;;10.77;100.00
65897;BME280;52677;50.898;10.854;2023-05-10T03:15:22;97710.41;;;10.55;100.00
65897;BME280;52677;50.898;10.854;2023-05-10T03:19:53;97708.06;;;10.39;100.00
65897;BME280;52677;50.898;10.854;2023-05-10T03:21:59;97695.81;;;10.30;100.00
65897;BME280;52677;50.898;10.854;2023-05-10T03:24:05;97710.44;;;10.27;100.00
65897;BME280;52677;50.898;10.854;2023-05-10T03:26:07;97698.56;;;10.23;100.00
65897;BME280;52677;50.898;10.854;2023-05-10T03:28:08;97712.38;;;10.19;100.00
65897;BME280;52677;50.898;10.854;2023-05-10T03:30:12;97708.44;;;10.24;100.00
65897;BME280;52677;50.898;10.854;2023-05-10T03:32:12;97708.03;;;10.22;100.00
65897;BME280;52677;50.898;10.854;2023-05-10T03:34:13;97710.41;;;10.20;100.00
65897;BME280;52677;50.898;10.854;2023-05-10T03:36:13;97705.66;;;10.20;100.00
65897;BME280;52677;50.898;10.854;2023-05-10T03:38:13;97706.88;;;10.23;100.00
65897;BME280;52677;50.898;10.854;2023-05-10T03:40:14;97708.44;;;10.24;100.00
65897;BME280;52677;50.898;10.854;2023-05-10T03:42:14;97719.50;;;10.24;100.00
65897;BME280;52677;50.898;10.854;2023-05-10T03:44:14;97712.41;;;10.23;100.00
65897;BME280;52677;50.898;10.854;2023-05-10T03:46:15;97713.97;;;10.20;100.00
65897;BME280;52677;50.898;10.854;2023-05-10T03:48:15;97710.81;;;10.18;100.00
65897;BME280;52677;50.898;10.854;2023-05-10T03:50:16;97711.97;;;10.17;100.00
65897;BME280;52677;50.898;10.854;2023-05-10T03:52:16;97709.97;;;10.18;100.00
65897;BME280;52677;50.898;10.854;2023-05-10T03:54:16;97713.56;;;10.18;100.00
65897;BME280;52677;50.898;10.854;2023-05-10T03:56:17;97729.34;;;10.21;100.00
65897;BME280;52677;50.898;10.854;2023-05-10T03:58:17;97727.38;;;10.22;100.00
65897;BME280;52677;50.898;10.854;2023-05-10T04:00:18;97719.53;;;10.27;100.00
65897;BME280;52677;50.898;10.854;2023-05-10T04:02:19;97721.47;;;10.34;100.00
65897;BME280;52677;50.898;10.854;2023-05-10T04:04:19;97718.31;;;10.32;100.00
65897;BME280;52677;50.898;10.854;2023-05-10T04:06:20;97725.06;;;10.34;100.00
65897;BME280;52677;50.898;10.854;2023-05-10T04:08:21;97723.47;;;10.33;100.00
65897;BME280;52677;50.898;10.854;2023-05-10T04:10:21;97722.28;;;10.38;100.00
65897;BME280;52677;50.898;10.854;2023-05-10T04:12:21;97720.69;;;10.40;100.00
65897;BME280;52677;50.898;10.854;2023-05-10T04:14:22;97732.94;;;10.39;100.00
65897;BME280;52677;50.898;10.854;2023-05-10T04:16:22;97723.09;;;10.35;100.00
65897;BME280;52677;50.898;10.854;2023-05-10T04:18:22;97732.16;;;10.32;100.00
65897;BME280;52677;50.898;10.854;2023-05-10T04:20:23;97721.09;;;10.25;100.00
65897;BME280;52677;50.898;10.854;2023-05-10T04:22:23;97723.06;;;10.28;100.00
65897;BME280;52677;50.898;10.854;2023-05-10T04:24:24;97732.97;;;10.36;100.00
65897;BME280;52677;50.898;10.854;2023-05-10T04:26:24;97727.44;;;10.36;100.00
65897;BME280;52677;50.898;10.854;2023-05-10T04:28:25;97727.81;;;10.38;100.00
65897;BME280;52677;50.898;10.854;2023-05-10T04:30:25;97733.75;;;10.36;100.00
65897;BME280;52677;50.898;10.854;2023-05-10T04:32:28;97732.97;;;10.36;100.00
65897;BME280;52677;50.898;10.854;2023-05-10T04:34:29;97716.75;;;10.38;100.00
65897;BME280;52677;50.898;10.854;2023-05-10T04:36:29;97720.72;;;10.44;100.00
65897;BME280;52677;50.898;10.854;2023-05-10T04:38:30;97725.84;;;10.46;100.00
65897;BME280;52677;50.898;10.854;2023-05-10T04:40:30;97724.66;;;10.47;100.00
65897;BME280;52677;50.898;10.854;2023-05-10T04:42:30;97720.69;;;10.48;100.00
65897;BME280;52677;50.898;10.854;2023-05-10T04:44:32;97725.06;;;10.52;100.00
65897;BME280;52677;50.898;10.854;2023-05-10T04:46:32;97731.38;;;10.53;100.00
65897;BME280;52677;50.898;10.854;2023-05-10T04:48:32;97723.06;;;10.56;100.00
65897;BME280;52677;50.898;10.854;2023-05-10T04:50:33;97726.63;;;10.60;100.00
65897;BME280;52677;50.898;10.854;2023-05-10T04:52:33;97729.00;;;10.69;100.00
65897;BME280;52677;50.898;10.854;2023-05-10T04:54:33;97736.47;;;10.76;100.00
65897;BME280;52677;50.898;10.854;2023-05-10T04:56:34;97738.47;;;10.79;100.00
65897;BME280;52677;50.898;10.854;2023-05-10T04:58:35;97738.44;;;10.82;100.00
65897;BME280;52677;50.898;10.854;2023-05-10T05:00:35;97734.13;;;10.85;100.00
65897;BME280;52677;50.898;10.854;2023-05-10T05:02:35;97738.47;;;10.93;100.00
65897;BME280;52677;50.898;10.854;2023-05-10T05:04:36;97744.78;;;11.01;100.00
65897;BME280;52677;50.898;10.854;2023-05-10T05:06:36;97752.25;;;11.07;100.00
65897;BME280;52677;50.898;10.854;2023-05-10T05:08:37;97750.66;;;11.13;100.00
65897;BME280;52677;50.898;10.854;2023-05-10T05:10:37;97750.66;;;11.20;100.00
65897;BME280;52677;50.898;10.854;2023-05-10T05:12:37;97759.72;;;11.24;100.00
65897;BME280;52677;50.898;10.854;2023-05-10T05:14:37;97755.72;;;11.33;100.00
65897;BME280;52677;50.898;10.854;2023-05-10T05:16:38;97754.13;;;11.39;100.00
65897;BME280;52677;50.898;10.854;2023-05-10T05:18:38;97754.16;;;11.42;100.00
65897;BME280;52677;50.898;10.854;2023-05-10T05:20:39;97749.38;;;11.46;100.00
65897;BME280;52677;50.898;10.854;2023-05-10T05:22:39;97759.22;;;11.54;100.00
65897;BME280;52677;50.898;10.854;2023-05-10T05:24:39;97760.41;;;11.57;100.00
65897;BME280;52677;50.898;10.854;2023-05-10T05:26:39;97751.69;;;11.62;100.00
65897;BME280;52677;50.898;10.854;2023-05-10T05:28:40;97763.94;;;11.68;100.00
65897;BME280;52677;50.898;10.854;2023-05-10T05:30:40;97760.72;;;11.73;100.00
65897;BME280;52677;50.898;10.854;2023-05-10T05:32:41;97772.59;;;11.77;100.00
65897;BME280;52677;50.898;10.854;2023-05-10T05:34:41;97774.97;;;11.82;100.00
65897;BME280;52677;50.898;10.854;2023-05-10T05:36:41;97774.19;;;11.86;100.00
65897;BME280;52677;50.898;10.854;2023-05-10T05:38:42;97779.28;;;11.91;100.00
65897;BME280;52677;50.898;10.854;2023-05-10T05:40:43;97789.97;;;11.96;100.00
65897;BME280;52677;50.898;10.854;2023-05-10T05:42:43;97791.09;;;12.05;100.00
65897;BME280;52677;50.898;10.854;2023-05-10T05:44:44;97778.00;;;12.09;100.00
65897;BME280;52677;50.898;10.854;2023-05-10T05:46:44;97789.84;;;12.17;100.00
65897;BME280;52677;50.898;10.854;2023-05-10T05:48:44;97790.97;;;12.23;100.00
65897;BME280;52677;50.898;10.854;2023-05-10T05:50:45;97793.75;;;12.27;100.00
65897;BME280;52677;50.898;10.854;2023-05-10T05:52:46;97793.72;;;12.30;100.00
65897;BME280;52677;50.898;10.854;2023-05-10T05:54:46;97794.91;;;12.33;100.00
65897;BME280;52677;50.898;10.854;2023-05-10T05:56:46;97806.38;;;12.35;100.00
65897;BME280;52677;50.898;10.854;2023-05-10T05:58:47;97807.53;;;12.37;100.00
65897;BME280;52677;50.898;10.854;2023-05-10T06:00:48;97811.09;;;12.38;100.00
65897;BME280;52677;50.898;10.854;2023-05-10T06:02:48;97797.63;;;12.40;100.00
65897;BME280;52677;50.898;10.854;2023-05-10T06:04:48;97815.03;;;12.44;100.00
65897;BME280;52677;50.898;10.854;2023-05-10T06:06:48;97813.84;;;12.45;100.00
65897;BME280;52677;50.898;10.854;2023-05-10T06:08:49;97813.38;;;12.54;100.00
65897;BME280;52677;50.898;10.854;2023-05-10T06:10:49;97820.50;;;12.58;100.00
65897;BME280;52677;50.898;10.854;2023-05-10T06:12:50;97817.28;;;12.63;100.00
65897;BME280;52677;50.898;10.854;2023-05-10T06:14:50;97816.88;;;12.65;100.00
65897;BME280;52677;50.898;10.854;2023-05-10T06:16:51;97820.41;;;12.69;100.00
65897;BME280;52677;50.898;10.854;2023-05-10T06:18:51;97822.38;;;12.72;100.00
65897;BME280;52677;50.898;10.854;2023-05-10T06:20:51;97817.19;;;12.78;100.00
65897;BME280;52677;50.898;10.854;2023-05-10T06:22:52;97815.59;;;12.77;100.00
65897;BME280;52677;50.898;10.854;2023-05-10T06:24:52;97827.44;;;12.81;100.00
65897;BME280;52677;50.898;10.854;2023-05-10T06:26:52;97822.25;;;12.86;100.00
65897;BME280;52677;50.898;10.854;2023-05-10T06:28:53;97826.97;;;12.89;100.00
65897;BME280;52677;50.898;10.854;2023-05-10T06:30:53;97828.97;;;12.92;100.00
65897;BME280;52677;50.898;10.854;2023-05-10T06:32:54;97834.88;;;12.94;100.00
65897;BME280;52677;50.898;10.854;2023-05-10T06:34:54;97823.78;;;12.94;100.00
65897;BME280;52677;50.898;10.854;2023-05-10T06:36:55;97849.13;;;13.00;100.00
65897;BME280;52677;50.898;10.854;2023-05-10T06:38:55;97838.34;;;13.06;100.00
65897;BME280;52677;50.898;10.854;2023-05-10T06:40:55;97834.78;;;13.09;100.00
65897;BME280;52677;50.898;10.854;2023-05-10T06:42:56;97843.44;;;13.14;100.00
65897;BME280;52677;50.898;10.854;2023-05-10T06:44:56;97842.63;;;13.21;100.00
65897;BME280;52677;50.898;10.854;2023-05-10T06:46:56;97844.19;;;13.26;100.00
65897;BME280;52677;50.898;10.854;2023-05-10T06:48:57;97856.00;;;13.33;100.00
65897;BME280;52677;50.898;10.854;2023-05-10T06:50:57;97850.44;;;13.33;100.00
65897;BME280;52677;50.898;10.854;2023-05-10T06:52:57;97858.69;;;13.40;100.00
65897;BME280;52677;50.898;10.854;2023-05-10T06:54:58;97860.25;;;13.45;100.00
65897;BME280;52677;50.898;10.854;2023-05-10T06:56:58;97854.28;;;13.46;100.00
65897;BME280;52677;50.898;10.854;2023-05-10T06:58:58;97848.69;;;13.50;100.00
65897;BME280;52677;50.898;10.854;2023-05-10T07:01:03;97851.00;;;13.55;100.00
65897;BME280;52677;50.898;10.854;2023-05-10T07:03:04;97857.34;;;13.59;100.00
65897;BME280;52677;50.898;10.854;2023-05-10T07:05:04;97853.69;;;13.66;100.00
65897;BME280;52677;50.898;10.854;2023-05-10T07:07:05;97857.59;;;13.72;100.00
65897;BME280;52677;50.898;10.854;2023-05-10T07:09:05;97855.09;;;13.81;100.00
65897;BME280;52677;50.898;10.854;2023-05-10T07:11:06;97860.56;;;13.88;100.00
65897;BME280;52677;50.898;10.854;2023-05-10T07:13:10;97861.66;;;13.98;100.00
65897;BME280;52677;50.898;10.854;2023-05-10T07:15:10;97854.84;;;14.02;100.00
65897;BME280;52677;50.898;10.854;2023-05-10T07:17:11;97859.03;;;14.18;100.00
65897;BME280;52677;50.898;10.854;2023-05-10T07:19:11;97862.88;;;14.27;100.00
65897;BME280;52677;50.898;10.854;2023-05-10T07:21:11;97865.50;;;14.42;100.00
65897;BME280;52677;50.898;10.854;2023-05-10T07:23:11;97867.84;;;14.43;100.00
65897;BME280;52677;50.898;10.854;2023-05-10T07:25:12;97861.00;;;14.51;100.00
65897;BME280;52677;50.898;10.854;2023-05-10T07:27:12;97862.06;;;14.61;100.00
65897;BME280;52677;50.898;10.854;2023-05-10T07:29:13;97872.72;;;14.66;100.00
65897;BME280;52677;50.898;10.854;2023-05-10T07:31:13;97867.53;;;14.68;100.00
65897;BME280;52677;50.898;10.854;2023-05-10T07:33:14;97877.09;;;14.67;100.00
65897;BME280;52677;50.898;10.854;2023-05-10T07:35:15;97879.38;;;14.72;100.00
65897;BME280;52677;50.898;10.854;2023-05-10T07:37:16;97878.19;;;14.73;100.00
65897;BME280;52677;50.898;10.854;2023-05-10T07:39:16;97882.91;;;14.76;100.00
65897;BME280;52677;50.898;10.854;2023-05-10T07:41:16;97875.34;;;14.77;100.00
65897;BME280;52677;50.898;10.854;2023-05-10T07:43:17;97881.78;;;14.74;100.00
65897;BME280;52677;50.898;10.854;2023-05-10T07:45:17;97884.56;;;14.74;100.00
65897;BME280;52677;50.898;10.854;2023-05-10T07:47:18;97884.44;;;14.81;100.00
65897;BME280;52677;50.898;10.854;2023-05-10T07:49:18;97883.06;;;14.93;100.00
65897;BME280;52677;50.898;10.854;2023-05-10T07:51:19;97887.69;;;15.03;100.00
65897;BME280;52677;50.898;10.854;2023-05-10T07:53:19;97892.25;;;15.16;100.00
65897;BME280;52677;50.898;10.854;2023-05-10T07:55:20;97882.56;;;15.25;100.00
65897;BME280;52677;50.898;10.854;2023-05-10T07:57:24;97894.00;;;15.30;100.00
65897;BME280;52677;50.898;10.854;2023-05-10T07:59:24;97887.63;;;15.30;100.00
65897;BME280;52677;50.898;10.854;2023-05-10T08:01:25;97885.72;;;15.27;100.00
65897;BME280;52677;50.898;10.854;2023-05-10T08:03:26;97898.44;;;15.28;100.00
65897;BME280;52677;50.898;10.854;2023-05-10T08:05:26;97891.72;;;15.25;100.00
65897;BME280;52677;50.898;10.854;2023-05-10T08:07:26;97898.78;;;15.30;100.00
65897;BME280;52677;50.898;10.854;2023-05-10T08:09:26;97895.59;;;15.31;100.00
65897;BME280;52677;50.898;10.854;2023-05-10T08:11:27;97906.47;;;15.45;100.00
65897;BME280;52677;50.898;10.854;2023-05-10T08:13:27;97892.78;;;15.55;100.00
65897;BME280;52677;50.898;10.854;2023-05-10T08:15:28;97895.88;;;15.60;100.00
65897;BME280;52677;50.898;10.854;2023-05-10T08:17:28;97900.31;;;15.58;100.00
65897;BME280;52677;50.898;10.854;2023-05-10T08:19:28;97915.03;;;15.58;100.00
65897;BME280;52677;50.898;10.854;2023-05-10T08:21:29;97906.06;;;15.47;100.00
65897;BME280;52677;50.898;10.854;2023-05-10T08:23:29;97918.50;;;15.42;100.00
65897;BME280;52677;50.898;10.854;2023-05-10T08:25:29;97917.72;;;15.42;100.00
65897;BME280;52677;50.898;10.854;2023-05-10T08:27:30;97919.47;;;15.32;100.00
65897;BME280;52677;50.898;10.854;2023-05-10T08:29:30;97921.56;;;15.25;100.00
65897;BME280;52677;50.898;10.854;2023-05-10T08:31:30;97922.53;;;15.14;100.00
65897;BME280;52677;50.898;10.854;2023-05-10T08:33:31;97918.59;;;15.12;100.00
65897;BME280;52677;50.898;10.854;2023-05-10T08:35:31;97926.22;;;15.08;100.00
65897;BME280;52677;50.898;10.854;2023-05-10T08:37:33;97931.47;;;15.02;100.00
65897;BME280;52677;50.898;10.854;2023-05-10T08:39:36;97923.47;;;15.04;100.00
65897;BME280;52677;50.898;10.854;2023-05-10T08:41:39;97916.28;;;15.07;100.00
65897;BME280;52677;50.898;10.854;2023-05-10T08:43:39;97927.16;;;15.25;100.00
65897;BME280;52677;50.898;10.854;2023-05-10T08:45:43;97918.53;;;15.39;100.00
65897;BME280;52677;50.898;10.854;2023-05-10T08:47:46;97921.22;;;15.46;100.00
65897;BME280;52677;50.898;10.854;2023-05-10T08:49:47;97924.63;;;15.57;100.00
65897;BME280;52677;50.898;10.854;2023-05-10T08:51:54;97933.00;;;15.57;100.00
65897;BME280;52677;50.898;10.854;2023-05-10T08:53:55;97925.75;;;15.60;100.00
65897;BME280;52677;50.898;10.854;2023-05-10T08:55:55;97934.09;;;15.63;100.00
65897;BME280;52677;50.898;10.854;2023-05-10T08:57:56;97932.94;;;15.61;100.00
65897;BME280;52677;50.898;10.854;2023-05-10T08:59:56;97939.81;;;15.53;100.00
65897;BME280;52677;50.898;10.854;2023-05-10T09:02:00;97934.69;;;15.51;100.00
65897;BME280;52677;50.898;10.854;2023-05-10T09:04:02;97951.81;;;15.26;100.00
65897;BME280;52677;50.898;10.854;2023-05-10T09:06:04;97947.75;;;15.04;100.00
65897;BME280;52677;50.898;10.854;2023-05-10T09:08:06;97951.34;;;15.04;100.00
65897;BME280;52677;50.898;10.854;2023-05-10T09:10:07;97964.97;;;14.99;100.00
65897;BME280;52677;50.898;10.854;2023-05-10T09:12:09;97957.78;;;14.71;100.00
65897;BME280;52677;50.898;10.854;2023-05-10T09:14:12;97961.06;;;14.62;100.00
65897;BME280;52677;50.898;10.854;2023-05-10T09:16:12;97968.13;;;14.70;100.00
65897;BME280;52677;50.898;10.854;2023-05-10T09:18:12;97963.75;;;14.69;100.00
65897;BME280;52677;50.898;10.854;2023-05-10T09:20:13;97963.06;;;14.61;100.00
65897;BME280;52677;50.898;10.854;2023-05-10T09:22:13;97979.81;;;14.58;100.00
65897;BME280;52677;50.898;10.854;2023-05-10T09:24:14;97981.63;;;14.38;100.00
65897;BME280;52677;50.898;10.854;2023-05-10T09:26:14;97980.59;;;14.21;100.00
65897;BME280;52677;50.898;10.854;2023-05-10T09:28:14;97979.88;;;14.17;100.00
65897;BME280;52677;50.898;10.854;2023-05-10T09:30:29;97998.31;;;14.38;100.00
65897;BME280;52677;50.898;10.854;2023-05-10T09:32:44;97990.94;;;14.24;100.00
65897;BME280;52677;50.898;10.854;2023-05-10T09:34:45;97992.38;;;14.36;100.00
65897;BME280;52677;50.898;10.854;2023-05-10T09:36:56;97986.31;;;14.44;100.00
65897;BME280;52677;50.898;10.854;2023-05-10T09:38:57;97988.28;;;14.47;100.00
65897;BME280;52677;50.898;10.854;2023-05-10T09:40:57;97990.28;;;14.47;100.00
65897;BME280;52677;50.898;10.854;2023-05-10T09:45:06;97991.94;;;14.75;100.00
65897;BME280;52677;50.898;10.854;2023-05-10T09:47:07;97998.06;;;14.93;100.00
65897;BME280;52677;50.898;10.854;2023-05-10T09:49:08;97995.88;;;15.08;100.00
65897;BME280;52677;50.898;10.854;2023-05-10T09:51:08;97994.91;;;15.18;100.00
65897;BME280;52677;50.898;10.854;2023-05-10T09:53:08;98000.75;;;15.00;100.00
65897;BME280;52677;50.898;10.854;2023-05-10T09:55:09;97988.56;;;15.17;100.00
65897;BME280;52677;50.898;10.854;2023-05-10T09:57:19;97989.06;;;15.36;100.00
65897;BME280;52677;50.898;10.854;2023-05-10T09:59:21;97983.34;;;15.20;100.00
65897;BME280;52677;50.898;10.854;2023-05-10T10:01:25;97986.53;;;15.45;100.00
65897;BME280;52677;50.898;10.854;2023-05-10T10:03:26;97991.91;;;15.59;100.00
65897;BME280;52677;50.898;10.854;2023-05-10T10:05:30;97981.50;;;15.63;100.00
65897;BME280;52677;50.898;10.854;2023-05-10T10:07:31;97983.88;;;15.65;98.95
65897;BME280;52677;50.898;10.854;2023-05-10T10:09:33;97981.06;;;15.88;99.58
65897;BME280;52677;50.898;10.854;2023-05-10T10:11:37;97989.88;;;15.87;96.99
65897;BME280;52677;50.898;10.854;2023-05-10T10:13:38;97993.31;;;15.94;97.64
65897;BME280;52677;50.898;10.854;2023-05-10T10:15:39;97987.34;;;15.72;100.00
65897;BME280;52677;50.898;10.854;2023-05-10T10:17:39;97992.69;;;15.60;100.00
65897;BME280;52677;50.898;10.854;2023-05-10T10:19:41;97998.19;;;15.40;100.00
65897;BME280;52677;50.898;10.854;2023-05-10T10:21:41;98003.09;;;15.32;100.00
65897;BME280;52677;50.898;10.854;2023-05-10T10:23:41;97997.34;;;15.16;100.00
65897;BME280;52677;50.898;10.854;2023-05-10T10:25:44;98002.75;;;15.00;100.00
65897;BME280;52677;50.898;10.854;2023-05-10T10:32:24;98007.50;;;14.34;100.00
65897;BME280;52677;50.898;10.854;2023-05-10T10:34:29;98008.78;;;14.26;100.00
65897;BME280;52677;50.898;10.854;2023-05-10T10:36:30;98017.63;;;14.18;100.00
65897;BME280;52677;50.898;10.854;2023-05-10T10:38:58;98013.97;;;14.24;100.00
65897;BME280;52677;50.898;10.854;2023-05-10T10:41:02;98013.59;;;14.22;100.00
65897;BME280;52677;50.898;10.854;2023-05-10T10:43:25;98015.63;;;14.18;100.00
65897;BME280;52677;50.898;10.854;2023-05-10T10:45:26;98014.38;;;14.23;100.00
65897;BME280;52677;50.898;10.854;2023-05-10T10:47:29;98015.00;;;14.38;100.00
65897;BME280;52677;50.898;10.854;2023-05-10T10:49:33;98008.09;;;14.56;100.00
65897;BME280;52677;50.898;10.854;2023-05-10T10:51:38;98011.53;;;14.68;100.00
65897;BME280;52677;50.898;10.854;2023-05-10T10:53:40;98017.47;;;14.70;100.00
65897;BME280;52677;50.898;10.854;2023-05-10T10:55:47;98012.81;;;14.59;100.00
65897;BME280;52677;50.898;10.854;2023-05-10T10:57:55;98005.53;;;14.69;100.00
65897;BME280;52677;50.898;10.854;2023-05-10T11:00:29;98013.47;;;14.71;100.00